Birdsville, Georgia
Current Conditions -  °F | °C
As of 9:55 PM on Sunday 21 Dec 2014 (Local Time) from KJYL Reporting Station
Drizzle Drizzle  
Wind Chill: 42°   Ceiling: 700
Heat Index: 46°   Visibility: 5mi
Dew Point: 46°   Wind: 7mph
Humidity: 100%   Direction: 90°E
Pressure: 30.11"   Gusts: NA
Location:  32.7727°N, 81.9794°W
Report Text: KJYL 220255Z AUTO 09006KT 5SM -DZ OVC007 08/08 A3011 RMK AO2 T00780078
Loading
Personal Weather Stations






























Interactive Weather Map New forecast layout! Learn more

10-Day Weather Forecast

Advertisements
Track Severe Weather on mobile